Manchester, GA (31816)

5:32 AM EST on November 22, 2014 (GMT -0500)
Hwy74-Jeff Davis | Change Station
CLOSE
Current Station
Personal Weather Station
Location: Thomaston, GA
Elevation: 852 ft
Nearby Weather Stations

Elev 852 ft 32.95 °N, 84.45 °W | Updated 2 minutes ago

Clear
Clear
41.6 °F
Feels Like 42 °F
N
0.0
Wind Variable Wind from SE
Gusts 6.0 mph

Today
High -- | Low -- °F
--% Chance of Precip.
Yesterday
High -- | Low -- °F
Precip. -- in
7:15 AM 5:33 PM
Waning Crescent, 0% visible
Pressure 30.42 in
Visibility 10.0 miles
Clouds Clear
Windchill 42 °F
Dew Point 36 °F
Humidity 82%
Rainfall 0.00 in
Snow Depth Not available.
UV 0 out of 12
Pollen .80 out of 12
Air Quality Not available.
Flu Activity Not available.
METAR KOPN 221015Z AUTO 09007KT 10SM CLR 07/03 A3042 RMK AO2

More Conditions Fewer Conditions

Pressure 30.42 in
Visibility 10.0 miles
Clouds Clear
Windchill 42 °F
Dew Point 36 °F
Humidity 82%
Rainfall 0.00 in
Snow Depth Not available.
UV 0 out of 12
Pollen .80 out of 12
Air Quality Not available.
Flu Activity Not available.
METAR KOPN 221015Z AUTO 09007KT 10SM CLR 07/03 A3042 RMK AO2

More Conditions Fewer Conditions

10-Day Weather Forecast

Almanac

Astronomy

Nov. 22, 2014 Rise Set
Actual Time
Civil Twilight
Nautical Twilight
Astronomical Twilight
Moon
Length of Visible Light
Length of Day
Tomorrow will be .
, % of the Moon is Illuminated

Today's Extremes

State Highs State Lows

Community

WunderPhotos

Upload Photos

1,772,799 photos uploaded!

WunderBlogs® & News

Nearby

Air Quality

  Air Quality AQ Index Pollutant
Not available.

Snow Depth

Station Depth Elevation

Earthquake Activity

City Distance Mag. Time & Date
Minimum magnitude displayed is 2.5.

Coastal Water Temperatures

Place Temperature

Nearby Weather Stations